sensor_id;sensor_type;location;lat;lon;timestamp;temperature;humidity
37658;DHT22;23500;53.268;8.308;2022-11-20T00:00:10;13.00;68.00
37658;DHT22;23500;53.268;8.308;2022-11-20T00:02:35;13.10;68.90
37658;DHT22;23500;53.268;8.308;2022-11-20T00:05:01;13.10;68.80
37658;DHT22;23500;53.268;8.308;2022-11-20T00:07:27;13.00;69.10
37658;DHT22;23500;53.268;8.308;2022-11-20T00:09:52;13.00;68.60
37658;DHT22;23500;53.268;8.308;2022-11-20T00:12:18;13.00;68.30
37658;DHT22;23500;53.268;8.308;2022-11-20T00:14:43;13.00;68.80
37658;DHT22;23500;53.268;8.308;2022-11-20T00:17:09;13.00;68.80
37658;DHT22;23500;53.268;8.308;2022-11-20T00:19:35;12.90;68.70
37658;DHT22;23500;53.268;8.308;2022-11-20T00:22:00;12.90;69.50
37658;DHT22;23500;53.268;8.308;2022-11-20T00:24:26;12.90;69.60
37658;DHT22;23500;53.268;8.308;2022-11-20T00:26:51;12.90;69.70
37658;DHT22;23500;53.268;8.308;2022-11-20T00:29:17;12.90;69.60
37658;DHT22;23500;53.268;8.308;2022-11-20T00:31:43;12.90;69.70
37658;DHT22;23500;53.268;8.308;2022-11-20T00:34:09;12.90;69.70
37658;DHT22;23500;53.268;8.308;2022-11-20T00:36:35;12.90;70.50
37658;DHT22;23500;53.268;8.308;2022-11-20T00:39:01;12.90;69.80
37658;DHT22;23500;53.268;8.308;2022-11-20T00:41:29;12.90;69.60
37658;DHT22;23500;53.268;8.308;2022-11-20T00:43:55;12.80;70.40
37658;DHT22;23500;53.268;8.308;2022-11-20T00:46:23;12.80;70.20
37658;DHT22;23500;53.268;8.308;2022-11-20T00:48:49;12.80;70.20
37658;DHT22;23500;53.268;8.308;2022-11-20T00:51:17;12.80;70.50
37658;DHT22;23500;53.268;8.308;2022-11-20T00:53:44;12.80;70.20
37658;DHT22;23500;53.268;8.308;2022-11-20T00:56:15;12.80;70.20
37658;DHT22;23500;53.268;8.308;2022-11-20T00:58:43;12.80;70.70
37658;DHT22;23500;53.268;8.308;2022-11-20T01:03:39;12.80;71.20
37658;DHT22;23500;53.268;8.308;2022-11-20T01:06:26;12.80;71.10
37658;DHT22;23500;53.268;8.308;2022-11-20T01:08:54;12.80;69.40
37658;DHT22;23500;53.268;8.308;2022-11-20T01:11:23;12.80;67.80
37658;DHT22;23500;53.268;8.308;2022-11-20T01:13:50;12.90;68.60
37658;DHT22;23500;53.268;8.308;2022-11-20T01:16:23;12.90;70.50
37658;DHT22;23500;53.268;8.308;2022-11-20T01:18:51;13.00;71.20
37658;DHT22;23500;53.268;8.308;2022-11-20T01:21:25;13.10;71.80
37658;DHT22;23500;53.268;8.308;2022-11-20T01:23:51;13.30;72.80
37658;DHT22;23500;53.268;8.308;2022-11-20T01:26:19;13.50;75.20
37658;DHT22;23500;53.268;8.308;2022-11-20T01:28:46;14.10;74.60
37658;DHT22;23500;53.268;8.308;2022-11-20T01:33:39;15.60;70.40
37658;DHT22;23500;53.268;8.308;2022-11-20T01:36:06;16.30;68.20
37658;DHT22;23500;53.268;8.308;2022-11-20T01:38:32;16.90;66.20
37658;DHT22;23500;53.268;8.308;2022-11-20T01:40:58;17.30;64.50
37658;DHT22;23500;53.268;8.308;2022-11-20T01:43:24;17.70;63.40
37658;DHT22;23500;53.268;8.308;2022-11-20T01:46:18;17.90;62.40
37658;DHT22;23500;53.268;8.308;2022-11-20T01:48:57;18.10;61.70
37658;DHT22;23500;53.268;8.308;2022-11-20T01:51:39;18.20;61.30
37658;DHT22;23500;53.268;8.308;2022-11-20T01:54:12;18.20;61.20
37658;DHT22;23500;53.268;8.308;2022-11-20T01:56:42;18.20;61.20
37658;DHT22;23500;53.268;8.308;2022-11-20T01:59:10;18.20;61.20
37658;DHT22;23500;53.268;8.308;2022-11-20T02:01:37;18.10;61.40
37658;DHT22;23500;53.268;8.308;2022-11-20T02:04:05;17.90;61.60
37658;DHT22;23500;53.268;8.308;2022-11-20T02:06:35;17.80;61.90
37658;DHT22;23500;53.268;8.308;2022-11-20T02:09:03;17.70;62.00
37658;DHT22;23500;53.268;8.308;2022-11-20T02:11:30;17.50;61.80
37658;DHT22;23500;53.268;8.308;2022-11-20T02:13:56;17.40;62.10
37658;DHT22;23500;53.268;8.308;2022-11-20T02:16:25;17.20;61.00
37658;DHT22;23500;53.268;8.308;2022-11-20T02:18:52;17.00;59.90
37658;DHT22;23500;53.268;8.308;2022-11-20T02:21:27;16.90;59.40
37658;DHT22;23500;53.268;8.308;2022-11-20T02:24:03;16.70;58.30
37658;DHT22;23500;53.268;8.308;2022-11-20T02:26:32;16.50;58.60
37658;DHT22;23500;53.268;8.308;2022-11-20T02:29:00;16.30;59.20
37658;DHT22;23500;53.268;8.308;2022-11-20T02:31:27;16.10;58.80
37658;DHT22;23500;53.268;8.308;2022-11-20T02:33:56;16.00;59.20
37658;DHT22;23500;53.268;8.308;2022-11-20T02:36:25;15.80;59.80
37658;DHT22;23500;53.268;8.308;2022-11-20T02:38:51;15.70;61.20
37658;DHT22;23500;53.268;8.308;2022-11-20T02:41:17;15.60;61.00
37658;DHT22;23500;53.268;8.308;2022-11-20T02:43:43;15.50;60.20
37658;DHT22;23500;53.268;8.308;2022-11-20T02:46:09;15.40;59.60
37658;DHT22;23500;53.268;8.308;2022-11-20T02:48:34;15.40;60.60
37658;DHT22;23500;53.268;8.308;2022-11-20T02:51:00;15.30;61.70
37658;DHT22;23500;53.268;8.308;2022-11-20T02:53:26;15.30;62.10
37658;DHT22;23500;53.268;8.308;2022-11-20T02:55:51;15.30;61.00
37658;DHT22;23500;53.268;8.308;2022-11-20T02:58:17;15.30;60.00
37658;DHT22;23500;53.268;8.308;2022-11-20T03:00:43;15.30;60.40
37658;DHT22;23500;53.268;8.308;2022-11-20T03:03:09;15.30;60.30
37658;DHT22;23500;53.268;8.308;2022-11-20T03:05:34;15.30;60.30
37658;DHT22;23500;53.268;8.308;2022-11-20T03:08:00;15.30;60.00
37658;DHT22;23500;53.268;8.308;2022-11-20T03:10:25;15.30;60.70
37658;DHT22;23500;53.268;8.308;2022-11-20T03:12:55;15.30;59.60
37658;DHT22;23500;53.268;8.308;2022-11-20T03:15:24;15.30;60.50
37658;DHT22;23500;53.268;8.308;2022-11-20T03:17:53;15.30;60.40
37658;DHT22;23500;53.268;8.308;2022-11-20T03:20:20;15.20;60.70
37658;DHT22;23500;53.268;8.308;2022-11-20T03:22:45;15.20;61.00
37658;DHT22;23500;53.268;8.308;2022-11-20T03:25:11;15.20;60.60
37658;DHT22;23500;53.268;8.308;2022-11-20T03:27:36;15.20;60.60
37658;DHT22;23500;53.268;8.308;2022-11-20T03:30:03;15.10;60.30
37658;DHT22;23500;53.268;8.308;2022-11-20T03:32:28;15.10;60.80
37658;DHT22;23500;53.268;8.308;2022-11-20T03:34:54;15.00;59.70
37658;DHT22;23500;53.268;8.308;2022-11-20T03:37:20;15.00;59.80
37658;DHT22;23500;53.268;8.308;2022-11-20T03:39:46;14.90;60.00
37658;DHT22;23500;53.268;8.308;2022-11-20T03:42:11;14.90;61.50
37658;DHT22;23500;53.268;8.308;2022-11-20T03:44:55;14.80;63.20
37658;DHT22;23500;53.268;8.308;2022-11-20T03:47:21;14.80;61.30
37658;DHT22;23500;53.268;8.308;2022-11-20T03:49:47;14.80;61.20
37658;DHT22;23500;53.268;8.308;2022-11-20T03:52:12;14.80;60.60
37658;DHT22;23500;53.268;8.308;2022-11-20T03:54:38;14.80;60.50
37658;DHT22;23500;53.268;8.308;2022-11-20T03:57:04;14.80;60.50
37658;DHT22;23500;53.268;8.308;2022-11-20T03:59:29;14.80;60.60
37658;DHT22;23500;53.268;8.308;2022-11-20T04:01:55;14.80;60.80
37658;DHT22;23500;53.268;8.308;2022-11-20T04:04:20;14.80;61.70
37658;DHT22;23500;53.268;8.308;2022-11-20T04:06:46;14.80;61.00
37658;DHT22;23500;53.268;8.308;2022-11-20T04:09:12;14.80;61.50
37658;DHT22;23500;53.268;8.308;2022-11-20T04:11:40;14.80;61.60
37658;DHT22;23500;53.268;8.308;2022-11-20T04:14:11;14.90;62.30
37658;DHT22;23500;53.268;8.308;2022-11-20T04:16:37;14.90;61.90
37658;DHT22;23500;53.268;8.308;2022-11-20T04:19:06;14.90;61.20
37658;DHT22;23500;53.268;8.308;2022-11-20T04:21:32;14.90;61.90
37658;DHT22;23500;53.268;8.308;2022-11-20T04:23:58;14.80;62.10
37658;DHT22;23500;53.268;8.308;2022-11-20T04:26:27;14.80;61.90
37658;DHT22;23500;53.268;8.308;2022-11-20T04:28:53;14.80;63.20
37658;DHT22;23500;53.268;8.308;2022-11-20T04:31:22;14.80;63.20
37658;DHT22;23500;53.268;8.308;2022-11-20T04:33:47;14.80;63.50
37658;DHT22;23500;53.268;8.308;2022-11-20T04:36:18;14.80;64.30
37658;DHT22;23500;53.268;8.308;2022-11-20T04:38:44;14.70;64.60
37658;DHT22;23500;53.268;8.308;2022-11-20T04:41:15;14.70;64.10
37658;DHT22;23500;53.268;8.308;2022-11-20T04:43:41;14.70;65.90
37658;DHT22;23500;53.268;8.308;2022-11-20T04:46:11;14.70;65.80
37658;DHT22;23500;53.268;8.308;2022-11-20T04:48:36;14.60;66.20
37658;DHT22;23500;53.268;8.308;2022-11-20T04:51:05;14.60;66.10
37658;DHT22;23500;53.268;8.308;2022-11-20T04:53:31;14.60;65.40
37658;DHT22;23500;53.268;8.308;2022-11-20T04:56:01;14.60;63.80
37658;DHT22;23500;53.268;8.308;2022-11-20T04:58:27;14.60;64.60
37658;DHT22;23500;53.268;8.308;2022-11-20T05:00:53;14.70;63.00
37658;DHT22;23500;53.268;8.308;2022-11-20T05:03:18;14.60;62.20
37658;DHT22;23500;53.268;8.308;2022-11-20T05:05:44;14.70;62.30
37658;DHT22;23500;53.268;8.308;2022-11-20T05:08:09;14.70;61.90
37658;DHT22;23500;53.268;8.308;2022-11-20T05:10:35;14.70;61.90
37658;DHT22;23500;53.268;8.308;2022-11-20T05:13:01;14.70;61.40
37658;DHT22;23500;53.268;8.308;2022-11-20T05:15:26;14.70;61.70
37658;DHT22;23500;53.268;8.308;2022-11-20T05:17:52;14.70;61.50
37658;DHT22;23500;53.268;8.308;2022-11-20T05:20:19;14.70;61.50
37658;DHT22;23500;53.268;8.308;2022-11-20T05:22:45;14.70;61.90
37658;DHT22;23500;53.268;8.308;2022-11-20T05:25:11;14.70;61.70
37658;DHT22;23500;53.268;8.308;2022-11-20T05:27:37;14.60;62.10
37658;DHT22;23500;53.268;8.308;2022-11-20T05:30:04;14.60;62.20
37658;DHT22;23500;53.268;8.308;2022-11-20T05:32:30;14.60;62.20
37658;DHT22;23500;53.268;8.308;2022-11-20T05:34:56;14.60;62.20
37658;DHT22;23500;53.268;8.308;2022-11-20T05:37:22;14.60;62.70
37658;DHT22;23500;53.268;8.308;2022-11-20T05:39:47;14.60;62.30
37658;DHT22;23500;53.268;8.308;2022-11-20T05:42:13;14.50;62.60
37658;DHT22;23500;53.268;8.308;2022-11-20T05:45:03;14.50;62.60
37658;DHT22;23500;53.268;8.308;2022-11-20T05:47:32;14.50;63.40
37658;DHT22;23500;53.268;8.308;2022-11-20T05:49:59;14.50;63.20
37658;DHT22;23500;53.268;8.308;2022-11-20T05:52:24;14.50;62.10
37658;DHT22;23500;53.268;8.308;2022-11-20T05:54:53;14.50;63.30
37658;DHT22;23500;53.268;8.308;2022-11-20T05:57:18;14.50;63.00
37658;DHT22;23500;53.268;8.308;2022-11-20T05:59:44;14.50;62.60
37658;DHT22;23500;53.268;8.308;2022-11-20T06:02:09;14.50;61.70
37658;DHT22;23500;53.268;8.308;2022-11-20T06:04:35;14.40;60.30
37658;DHT22;23500;53.268;8.308;2022-11-20T06:07:01;14.50;60.50
37658;DHT22;23500;53.268;8.308;2022-11-20T06:09:26;14.40;61.40
37658;DHT22;23500;53.268;8.308;2022-11-20T06:11:52;14.50;61.90
37658;DHT22;23500;53.268;8.308;2022-11-20T06:14:18;14.50;61.00
37658;DHT22;23500;53.268;8.308;2022-11-20T06:16:43;14.50;60.50
37658;DHT22;23500;53.268;8.308;2022-11-20T06:19:09;14.50;61.20
37658;DHT22;23500;53.268;8.308;2022-11-20T06:21:34;14.50;61.40
37658;DHT22;23500;53.268;8.308;2022-11-20T06:24:00;14.50;62.60
37658;DHT22;23500;53.268;8.308;2022-11-20T06:26:27;14.50;62.10
37658;DHT22;23500;53.268;8.308;2022-11-20T06:28:53;14.40;62.60
37658;DHT22;23500;53.268;8.308;2022-11-20T06:31:22;14.50;63.90
37658;DHT22;23500;53.268;8.308;2022-11-20T06:33:48;14.50;63.20
37658;DHT22;23500;53.268;8.308;2022-11-20T06:36:16;14.50;64.40
37658;DHT22;23500;53.268;8.308;2022-11-20T06:38:42;14.50;63.50
37658;DHT22;23500;53.268;8.308;2022-11-20T06:41:14;14.40;63.40
37658;DHT22;23500;53.268;8.308;2022-11-20T06:43:40;14.40;63.50
37658;DHT22;23500;53.268;8.308;2022-11-20T06:46:07;14.40;63.10
37658;DHT22;23500;53.268;8.308;2022-11-20T06:48:33;14.40;63.10
37658;DHT22;23500;53.268;8.308;2022-11-20T06:50:59;14.40;62.90
37658;DHT22;23500;53.268;8.308;2022-11-20T06:53:28;14.30;63.00
37658;DHT22;23500;53.268;8.308;2022-11-20T06:55:55;14.40;62.50
37658;DHT22;23500;53.268;8.308;2022-11-20T06:58:21;14.30;62.70
37658;DHT22;23500;53.268;8.308;2022-11-20T07:00:47;14.40;62.00
37658;DHT22;23500;53.268;8.308;2022-11-20T07:03:14;14.30;62.00
37658;DHT22;23500;53.268;8.308;2022-11-20T07:05:40;14.30;62.20
37658;DHT22;23500;53.268;8.308;2022-11-20T07:08:06;14.40;62.10
37658;DHT22;23500;53.268;8.308;2022-11-20T07:10:32;14.40;61.90
37658;DHT22;23500;53.268;8.308;2022-11-20T07:12:58;14.40;61.10
37658;DHT22;23500;53.268;8.308;2022-11-20T07:15:24;14.40;61.90
37658;DHT22;23500;53.268;8.308;2022-11-20T07:17:51;14.40;63.30
37658;DHT22;23500;53.268;8.308;2022-11-20T07:20:17;14.40;61.80
37658;DHT22;23500;53.268;8.308;2022-11-20T07:22:42;14.40;62.00
37658;DHT22;23500;53.268;8.308;2022-11-20T07:25:09;14.40;62.40
37658;DHT22;23500;53.268;8.308;2022-11-20T07:27:35;14.40;63.80
37658;DHT22;23500;53.268;8.308;2022-11-20T07:30:01;14.40;63.70
37658;DHT22;23500;53.268;8.308;2022-11-20T07:32:27;14.40;64.00
37658;DHT22;23500;53.268;8.308;2022-11-20T07:34:53;14.40;64.50
37658;DHT22;23500;53.268;8.308;2022-11-20T07:37:18;14.40;64.00
37658;DHT22;23500;53.268;8.308;2022-11-20T07:39:44;14.40;64.40
37658;DHT22;23500;53.268;8.308;2022-11-20T07:42:10;14.40;64.70
37658;DHT22;23500;53.268;8.308;2022-11-20T07:44:38;14.40;63.90
37658;DHT22;23500;53.268;8.308;2022-11-20T07:47:04;14.30;64.80
37658;DHT22;23500;53.268;8.308;2022-11-20T07:49:30;14.40;64.40
37658;DHT22;23500;53.268;8.308;2022-11-20T07:51:56;14.30;65.50
37658;DHT22;23500;53.268;8.308;2022-11-20T07:54:22;14.30;66.00
37658;DHT22;23500;53.268;8.308;2022-11-20T07:56:50;14.30;65.00
37658;DHT22;23500;53.268;8.308;2022-11-20T07:59:16;14.30;64.60
37658;DHT22;23500;53.268;8.308;2022-11-20T08:01:42;14.30;64.60
37658;DHT22;23500;53.268;8.308;2022-11-20T08:04:08;14.40;65.20
37658;DHT22;23500;53.268;8.308;2022-11-20T08:06:35;14.40;65.10
37658;DHT22;23500;53.268;8.308;2022-11-20T08:09:01;14.40;65.60
37658;DHT22;23500;53.268;8.308;2022-11-20T08:11:26;14.50;65.80
37658;DHT22;23500;53.268;8.308;2022-11-20T08:14:10;14.60;64.90
37658;DHT22;23500;53.268;8.308;2022-11-20T08:16:47;14.60;64.10
37658;DHT22;23500;53.268;8.308;2022-11-20T08:19:13;14.60;64.80
37658;DHT22;23500;53.268;8.308;2022-11-20T08:21:40;14.70;64.00
37658;DHT22;23500;53.268;8.308;2022-11-20T08:24:06;14.70;62.30
37658;DHT22;23500;53.268;8.308;2022-11-20T08:26:32;14.70;60.70
37658;DHT22;23500;53.268;8.308;2022-11-20T08:28:58;14.70;61.70
37658;DHT22;23500;53.268;8.308;2022-11-20T08:31:25;14.70;60.80
37658;DHT22;23500;53.268;8.308;2022-11-20T08:33:52;14.60;61.20
37658;DHT22;23500;53.268;8.308;2022-11-20T08:36:18;14.70;62.70
37658;DHT22;23500;53.268;8.308;2022-11-20T08:38:49;14.60;61.60
37658;DHT22;23500;53.268;8.308;2022-11-20T08:41:14;14.60;63.10
37658;DHT22;23500;53.268;8.308;2022-11-20T08:43:54;14.50;62.40
37658;DHT22;23500;53.268;8.308;2022-11-20T08:46:21;14.50;61.80
37658;DHT22;23500;53.268;8.308;2022-11-20T08:48:46;14.50;63.20
37658;DHT22;23500;53.268;8.308;2022-11-20T08:51:13;14.40;61.70
37658;DHT22;23500;53.268;8.308;2022-11-20T08:53:39;14.40;62.90
37658;DHT22;23500;53.268;8.308;2022-11-20T08:56:05;14.40;62.90
37658;DHT22;23500;53.268;8.308;2022-11-20T08:58:31;14.40;62.00
37658;DHT22;23500;53.268;8.308;2022-11-20T09:00:57;14.40;61.40
37658;DHT22;23500;53.268;8.308;2022-11-20T09:03:23;14.40;61.30
37658;DHT22;23500;53.268;8.308;2022-11-20T09:05:49;14.40;61.70
37658;DHT22;23500;53.268;8.308;2022-11-20T09:08:14;14.40;61.70
37658;DHT22;23500;53.268;8.308;2022-11-20T09:10:40;14.40;62.60
37658;DHT22;23500;53.268;8.308;2022-11-20T09:13:06;14.50;62.10
37658;DHT22;23500;53.268;8.308;2022-11-20T09:15:32;14.50;62.10
37658;DHT22;23500;53.268;8.308;2022-11-20T09:18:01;14.60;61.90
37658;DHT22;23500;53.268;8.308;2022-11-20T09:20:28;14.60;62.00
37658;DHT22;23500;53.268;8.308;2022-11-20T09:22:55;14.60;61.50
37658;DHT22;23500;53.268;8.308;2022-11-20T09:25:21;14.60;61.10
37658;DHT22;23500;53.268;8.308;2022-11-20T09:27:47;14.60;60.20
37658;DHT22;23500;53.268;8.308;2022-11-20T09:30:14;14.60;60.50
37658;DHT22;23500;53.268;8.308;2022-11-20T09:32:40;14.60;60.90
37658;DHT22;23500;53.268;8.308;2022-11-20T09:35:06;14.60;61.00
37658;DHT22;23500;53.268;8.308;2022-11-20T09:37:32;14.60;60.50
37658;DHT22;23500;53.268;8.308;2022-11-20T09:39:58;14.60;61.20
37658;DHT22;23500;53.268;8.308;2022-11-20T09:48:16;14.50;61.20
37658;DHT22;23500;53.268;8.308;2022-11-20T09:56:03;14.40;61.80
37658;DHT22;23500;53.268;8.308;2022-11-20T10:01:11;14.40;61.20
37658;DHT22;23500;53.268;8.308;2022-11-20T10:06:13;14.50;65.70
37658;DHT22;23500;53.268;8.308;2022-11-20T10:08:50;14.50;66.00
37658;DHT22;23500;53.268;8.308;2022-11-20T10:14:25;14.60;66.60
37658;DHT22;23500;53.268;8.308;2022-11-20T10:16:55;14.70;65.70
37658;DHT22;23500;53.268;8.308;2022-11-20T10:24:44;14.90;64.30
37658;DHT22;23500;53.268;8.308;2022-11-20T10:30:11;14.90;62.60
37658;DHT22;23500;53.268;8.308;2022-11-20T10:32:54;14.90;63.50
37658;DHT22;23500;53.268;8.308;2022-11-20T10:38:52;14.90;63.60
37658;DHT22;23500;53.268;8.308;2022-11-20T10:41:41;14.90;64.00
37658;DHT22;23500;53.268;8.308;2022-11-20T10:44:16;14.90;64.20
37658;DHT22;23500;53.268;8.308;2022-11-20T10:47:00;14.90;65.00
37658;DHT22;23500;53.268;8.308;2022-11-20T10:49:26;14.90;65.70
37658;DHT22;23500;53.268;8.308;2022-11-20T10:55:18;14.80;65.40
37658;DHT22;23500;53.268;8.308;2022-11-20T11:00:23;14.80;65.40
37658;DHT22;23500;53.268;8.308;2022-11-20T11:02:51;14.80;66.10
37658;DHT22;23500;53.268;8.308;2022-11-20T11:08:00;14.90;66.00
37658;DHT22;23500;53.268;8.308;2022-11-20T11:10:36;14.90;65.60
37658;DHT22;23500;53.268;8.308;2022-11-20T11:13:02;15.00;66.40
37658;DHT22;23500;53.268;8.308;2022-11-20T11:15:36;15.00;65.30
37658;DHT22;23500;53.268;8.308;2022-11-20T11:18:02;15.00;66.10
37658;DHT22;23500;53.268;8.308;2022-11-20T11:20:28;15.10;67.50
37658;DHT22;23500;53.268;8.308;2022-11-20T11:22:56;15.20;67.20
37658;DHT22;23500;53.268;8.308;2022-11-20T11:25:31;15.20;66.90
37658;DHT22;23500;53.268;8.308;2022-11-20T11:30:43;15.20;65.40
37658;DHT22;23500;53.268;8.308;2022-11-20T11:33:11;15.20;65.10
37658;DHT22;23500;53.268;8.308;2022-11-20T11:35:45;15.20;66.20
37658;DHT22;23500;53.268;8.308;2022-11-20T11:38:16;15.20;66.30
37658;DHT22;23500;53.268;8.308;2022-11-20T11:40:43;15.20;65.50
37658;DHT22;23500;53.268;8.308;2022-11-20T11:43:36;15.20;66.50
37658;DHT22;23500;53.268;8.308;2022-11-20T11:51:23;15.10;68.00
37658;DHT22;23500;53.268;8.308;2022-11-20T11:53:50;15.10;68.90
37658;DHT22;23500;53.268;8.308;2022-11-20T11:56:16;15.10;68.00
37658;DHT22;23500;53.268;8.308;2022-11-20T11:58:47;15.10;69.30
37658;DHT22;23500;53.268;8.308;2022-11-20T12:06:52;15.10;68.30
37658;DHT22;23500;53.268;8.308;2022-11-20T12:09:20;15.10;68.30
37658;DHT22;23500;53.268;8.308;2022-11-20T12:12:02;15.20;67.70
37658;DHT22;23500;53.268;8.308;2022-11-20T12:14:37;15.20;67.50
37658;DHT22;23500;53.268;8.308;2022-11-20T12:17:04;15.30;65.50
37658;DHT22;23500;53.268;8.308;2022-11-20T12:19:32;15.30;65.30
37658;DHT22;23500;53.268;8.308;2022-11-20T12:30:10;15.40;64.10
37658;DHT22;23500;53.268;8.308;2022-11-20T12:35:54;15.40;62.00
37658;DHT22;23500;53.268;8.308;2022-11-20T12:44:27;15.40;61.80
37658;DHT22;23500;53.268;8.308;2022-11-20T12:52:56;15.20;62.30
37658;DHT22;23500;53.268;8.308;2022-11-20T13:07:13;15.10;62.80
37658;DHT22;23500;53.268;8.308;2022-11-20T13:09:45;15.10;61.20
37658;DHT22;23500;53.268;8.308;2022-11-20T13:20:14;15.10;62.10
37658;DHT22;23500;53.268;8.308;2022-11-20T13:22:47;15.20;62.40
37658;DHT22;23500;53.268;8.308;2022-11-20T13:27:48;15.20;61.90
37658;DHT22;23500;53.268;8.308;2022-11-20T13:30:18;15.30;61.60
37658;DHT22;23500;53.268;8.308;2022-11-20T13:33:49;15.30;62.40
37658;DHT22;23500;53.268;8.308;2022-11-20T13:35:54;15.30;62.80
37658;DHT22;23500;53.268;8.308;2022-11-20T13:38:20;15.30;60.00
37658;DHT22;23500;53.268;8.308;2022-11-20T13:40:56;15.30;60.10
37658;DHT22;23500;53.268;8.308;2022-11-20T13:43:40;15.30;61.70
37658;DHT22;23500;53.268;8.308;2022-11-20T13:46:08;15.30;61.70
37658;DHT22;23500;53.268;8.308;2022-11-20T13:48:43;15.30;62.10
37658;DHT22;23500;53.268;8.308;2022-11-20T13:51:14;15.30;61.50
37658;DHT22;23500;53.268;8.308;2022-11-20T13:59:43;15.10;63.00
37658;DHT22;23500;53.268;8.308;2022-11-20T14:02:16;15.10;62.70
37658;DHT22;23500;53.268;8.308;2022-11-20T14:04:46;15.10;61.90
37658;DHT22;23500;53.268;8.308;2022-11-20T14:07:12;15.00;62.20
37658;DHT22;23500;53.268;8.308;2022-11-20T14:09:38;15.00;61.80
37658;DHT22;23500;53.268;8.308;2022-11-20T14:12:18;15.00;61.50
37658;DHT22;23500;53.268;8.308;2022-11-20T14:14:52;15.00;60.40
37658;DHT22;23500;53.268;8.308;2022-11-20T14:19:50;15.10;61.90
37658;DHT22;23500;53.268;8.308;2022-11-20T14:22:20;15.10;61.20
37658;DHT22;23500;53.268;8.308;2022-11-20T14:25:05;15.10;62.30
37658;DHT22;23500;53.268;8.308;2022-11-20T14:27:37;15.20;61.20
37658;DHT22;23500;53.268;8.308;2022-11-20T14:30:04;15.20;61.50
37658;DHT22;23500;53.268;8.308;2022-11-20T14:32:31;15.20;59.80
37658;DHT22;23500;53.268;8.308;2022-11-20T14:35:02;15.20;60.00
37658;DHT22;23500;53.268;8.308;2022-11-20T14:37:33;15.20;59.90
37658;DHT22;23500;53.268;8.308;2022-11-20T14:40:01;15.20;59.70
37658;DHT22;23500;53.268;8.308;2022-11-20T14:42:28;15.20;59.50
37658;DHT22;23500;53.268;8.308;2022-11-20T14:45:00;15.20;60.20
37658;DHT22;23500;53.268;8.308;2022-11-20T14:47:29;15.20;60.60
37658;DHT22;23500;53.268;8.308;2022-11-20T14:49:57;15.20;60.50
37658;DHT22;23500;53.268;8.308;2022-11-20T14:52:26;15.10;61.10
37658;DHT22;23500;53.268;8.308;2022-11-20T14:54:54;15.10;60.50
37658;DHT22;23500;53.268;8.308;2022-11-20T14:57:24;15.10;60.80
37658;DHT22;23500;53.268;8.308;2022-11-20T14:59:51;15.00;60.40
37658;DHT22;23500;53.268;8.308;2022-11-20T15:02:30;15.00;60.50
37658;DHT22;23500;53.268;8.308;2022-11-20T15:05:00;15.00;62.30
37658;DHT22;23500;53.268;8.308;2022-11-20T15:07:32;14.90;62.60
37658;DHT22;23500;53.268;8.308;2022-11-20T15:10:06;14.90;63.00
37658;DHT22;23500;53.268;8.308;2022-11-20T15:12:34;14.90;59.60
37658;DHT22;23500;53.268;8.308;2022-11-20T15:15:01;14.90;59.30
37658;DHT22;23500;53.268;8.308;2022-11-20T15:17:28;14.90;57.90
37658;DHT22;23500;53.268;8.308;2022-11-20T15:19:54;14.90;58.70
37658;DHT22;23500;53.268;8.308;2022-11-20T15:22:20;14.90;58.70
37658;DHT22;23500;53.268;8.308;2022-11-20T15:24:46;15.00;58.50
37658;DHT22;23500;53.268;8.308;2022-11-20T15:27:11;15.00;58.90
37658;DHT22;23500;53.268;8.308;2022-11-20T15:29:37;15.10;58.50
37658;DHT22;23500;53.268;8.308;2022-11-20T15:32:03;15.10;58.90
37658;DHT22;23500;53.268;8.308;2022-11-20T15:34:29;15.10;57.80
37658;DHT22;23500;53.268;8.308;2022-11-20T15:36:55;15.20;57.90
37658;DHT22;23500;53.268;8.308;2022-11-20T15:39:20;15.20;58.10
37658;DHT22;23500;53.268;8.308;2022-11-20T15:41:46;15.10;58.50
37658;DHT22;23500;53.268;8.308;2022-11-20T15:44:12;15.10;57.70
37658;DHT22;23500;53.268;8.308;2022-11-20T15:46:41;15.10;57.30
37658;DHT22;23500;53.268;8.308;2022-11-20T15:49:13;15.00;59.00
37658;DHT22;23500;53.268;8.308;2022-11-20T15:51:42;15.00;57.70
37658;DHT22;23500;53.268;8.308;2022-11-20T15:54:11;15.00;58.40
37658;DHT22;23500;53.268;8.308;2022-11-20T15:56:36;14.90;57.60
37658;DHT22;23500;53.268;8.308;2022-11-20T15:59:02;14.90;57.30
37658;DHT22;23500;53.268;8.308;2022-11-20T16:01:28;14.80;57.70
37658;DHT22;23500;53.268;8.308;2022-11-20T16:03:54;14.80;58.20
37658;DHT22;23500;53.268;8.308;2022-11-20T16:06:19;14.80;56.70
37658;DHT22;23500;53.268;8.308;2022-11-20T16:08:45;14.70;57.60
37658;DHT22;23500;53.268;8.308;2022-11-20T16:11:15;14.70;57.40
37658;DHT22;23500;53.268;8.308;2022-11-20T16:13:41;14.70;58.80
37658;DHT22;23500;53.268;8.308;2022-11-20T16:16:32;14.60;59.40
37658;DHT22;23500;53.268;8.308;2022-11-20T16:18:58;14.60;59.00
37658;DHT22;23500;53.268;8.308;2022-11-20T16:21:25;14.60;57.90
37658;DHT22;23500;53.268;8.308;2022-11-20T16:24:05;14.60;57.60
37658;DHT22;23500;53.268;8.308;2022-11-20T16:26:32;14.60;58.60
37658;DHT22;23500;53.268;8.308;2022-11-20T16:29:02;14.70;58.00
37658;DHT22;23500;53.268;8.308;2022-11-20T16:31:28;14.70;58.50
37658;DHT22;23500;53.268;8.308;2022-11-20T16:33:56;14.70;58.00
37658;DHT22;23500;53.268;8.308;2022-11-20T16:36:24;14.80;58.10
37658;DHT22;23500;53.268;8.308;2022-11-20T16:38:58;14.80;57.90
37658;DHT22;23500;53.268;8.308;2022-11-20T16:41:25;14.80;58.50
37658;DHT22;23500;53.268;8.308;2022-11-20T16:43:53;14.90;57.70
37658;DHT22;23500;53.268;8.308;2022-11-20T16:46:22;14.90;58.20
37658;DHT22;23500;53.268;8.308;2022-11-20T16:49:05;14.90;57.90
37658;DHT22;23500;53.268;8.308;2022-11-20T16:51:34;14.90;58.40
37658;DHT22;23500;53.268;8.308;2022-11-20T16:54:05;14.80;59.10
37658;DHT22;23500;53.268;8.308;2022-11-20T16:56:31;14.80;58.00
37658;DHT22;23500;53.268;8.308;2022-11-20T16:58:58;14.80;57.60
37658;DHT22;23500;53.268;8.308;2022-11-20T17:01:25;14.80;58.10
37658;DHT22;23500;53.268;8.308;2022-11-20T17:04:00;14.70;59.00
37658;DHT22;23500;53.268;8.308;2022-11-20T17:06:32;14.70;58.50
37658;DHT22;23500;53.268;8.308;2022-11-20T17:08:58;14.60;57.60
37658;DHT22;23500;53.268;8.308;2022-11-20T17:11:24;14.60;58.30
37658;DHT22;23500;53.268;8.308;2022-11-20T17:13:50;14.60;57.40
37658;DHT22;23500;53.268;8.308;2022-11-20T17:16:22;14.50;57.30
37658;DHT22;23500;53.268;8.308;2022-11-20T17:18:48;14.50;58.10
37658;DHT22;23500;53.268;8.308;2022-11-20T17:21:14;14.50;58.80
37658;DHT22;23500;53.268;8.308;2022-11-20T17:23:42;14.40;58.70
37658;DHT22;23500;53.268;8.308;2022-11-20T17:26:19;14.40;59.40
37658;DHT22;23500;53.268;8.308;2022-11-20T17:28:51;14.40;58.60